sensor_id;sensor_type;location;lat;lon;timestamp;P1;durP1;ratioP1;P2;durP2;ratioP2
5801;SDS011;2927;49.366;8.530;2024-02-14T00:02:25;9.67;;;4.73;;
5801;SDS011;2927;49.366;8.530;2024-02-14T00:04:54;7.83;;;4.30;;
5801;SDS011;2927;49.366;8.530;2024-02-14T00:07:20;6.77;;;4.23;;
5801;SDS011;2927;49.366;8.530;2024-02-14T00:09:46;6.80;;;4.80;;
5801;SDS011;2927;49.366;8.530;2024-02-14T00:12:14;10.07;;;4.80;;
5801;SDS011;2927;49.366;8.530;2024-02-14T00:14:40;7.30;;;4.43;;
5801;SDS011;2927;49.366;8.530;2024-02-14T00:17:06;7.87;;;4.30;;
5801;SDS011;2927;49.366;8.530;2024-02-14T00:19:32;7.17;;;3.20;;
5801;SDS011;2927;49.366;8.530;2024-02-14T00:21:57;7.17;;;3.87;;
5801;SDS011;2927;49.366;8.530;2024-02-14T00:24:24;4.60;;;3.07;;
5801;SDS011;2927;49.366;8.530;2024-02-14T00:26:51;3.17;;;2.87;;
5801;SDS011;2927;49.366;8.530;2024-02-14T00:29:17;5.43;;;3.03;;
5801;SDS011;2927;49.366;8.530;2024-02-14T00:31:43;13.37;;;2.90;;
5801;SDS011;2927;49.366;8.530;2024-02-14T00:34:09;5.43;;;3.30;;
5801;SDS011;2927;49.366;8.530;2024-02-14T00:36:35;3.60;;;2.57;;
5801;SDS011;2927;49.366;8.530;2024-02-14T00:39:00;5.57;;;3.10;;
5801;SDS011;2927;49.366;8.530;2024-02-14T00:41:26;13.07;;;3.20;;
5801;SDS011;2927;49.366;8.530;2024-02-14T00:43:54;11.27;;;3.67;;
5801;SDS011;2927;49.366;8.530;2024-02-14T00:46:20;3.50;;;3.00;;
5801;SDS011;2927;49.366;8.530;2024-02-14T00:48:46;3.23;;;2.83;;
5801;SDS011;2927;49.366;8.530;2024-02-14T00:51:11;2.70;;;2.50;;
5801;SDS011;2927;49.366;8.530;2024-02-14T00:53:37;6.13;;;3.13;;
5801;SDS011;2927;49.366;8.530;2024-02-14T00:56:03;3.37;;;3.00;;
5801;SDS011;2927;49.366;8.530;2024-02-14T00:58:28;4.33;;;2.97;;
5801;SDS011;2927;49.366;8.530;2024-02-14T01:00:54;10.33;;;2.60;;
5801;SDS011;2927;49.366;8.530;2024-02-14T01:03:19;4.33;;;2.70;;
5801;SDS011;2927;49.366;8.530;2024-02-14T01:05:45;4.97;;;2.57;;
5801;SDS011;2927;49.366;8.530;2024-02-14T01:08:12;3.23;;;2.23;;
5801;SDS011;2927;49.366;8.530;2024-02-14T01:10:38;7.33;;;2.80;;
5801;SDS011;2927;49.366;8.530;2024-02-14T01:13:03;5.90;;;2.27;;
5801;SDS011;2927;49.366;8.530;2024-02-14T01:15:31;3.60;;;2.10;;
5801;SDS011;2927;49.366;8.530;2024-02-14T01:17:58;5.60;;;2.40;;
5801;SDS011;2927;49.366;8.530;2024-02-14T01:20:23;2.67;;;2.47;;
5801;SDS011;2927;49.366;8.530;2024-02-14T01:22:51;5.70;;;2.97;;
5801;SDS011;2927;49.366;8.530;2024-02-14T01:25:17;7.90;;;3.10;;
5801;SDS011;2927;49.366;8.530;2024-02-14T01:27:43;4.27;;;2.73;;
5801;SDS011;2927;49.366;8.530;2024-02-14T01:30:09;3.97;;;2.30;;
5801;SDS011;2927;49.366;8.530;2024-02-14T01:32:35;1.87;;;1.77;;
5801;SDS011;2927;49.366;8.530;2024-02-14T01:35:01;7.17;;;3.37;;
5801;SDS011;2927;49.366;8.530;2024-02-14T01:37:28;9.00;;;2.60;;
5801;SDS011;2927;49.366;8.530;2024-02-14T01:39:55;4.90;;;3.00;;
5801;SDS011;2927;49.366;8.530;2024-02-14T01:42:20;5.53;;;3.20;;
5801;SDS011;2927;49.366;8.530;2024-02-14T01:44:46;3.00;;;2.37;;
5801;SDS011;2927;49.366;8.530;2024-02-14T01:47:11;6.90;;;2.17;;
5801;SDS011;2927;49.366;8.530;2024-02-14T01:49:37;5.40;;;3.00;;
5801;SDS011;2927;49.366;8.530;2024-02-14T01:52:03;2.93;;;2.47;;
5801;SDS011;2927;49.366;8.530;2024-02-14T01:54:30;6.43;;;2.70;;
5801;SDS011;2927;49.366;8.530;2024-02-14T01:56:56;3.03;;;2.40;;
5801;SDS011;2927;49.366;8.530;2024-02-14T01:59:23;3.60;;;2.47;;
5801;SDS011;2927;49.366;8.530;2024-02-14T02:01:49;4.40;;;2.50;;
5801;SDS011;2927;49.366;8.530;2024-02-14T02:04:16;4.80;;;2.00;;
5801;SDS011;2927;49.366;8.530;2024-02-14T02:06:43;4.33;;;2.40;;
5801;SDS011;2927;49.366;8.530;2024-02-14T02:09:09;3.83;;;2.47;;
5801;SDS011;2927;49.366;8.530;2024-02-14T02:11:50;3.97;;;2.63;;
5801;SDS011;2927;49.366;8.530;2024-02-14T02:14:16;5.00;;;2.50;;
5801;SDS011;2927;49.366;8.530;2024-02-14T02:16:42;3.43;;;2.30;;
5801;SDS011;2927;49.366;8.530;2024-02-14T02:19:08;2.00;;;1.77;;
5801;SDS011;2927;49.366;8.530;2024-02-14T02:21:35;3.90;;;2.00;;
5801;SDS011;2927;49.366;8.530;2024-02-14T02:24:01;5.07;;;2.90;;
5801;SDS011;2927;49.366;8.530;2024-02-14T02:26:27;6.73;;;3.17;;
5801;SDS011;2927;49.366;8.530;2024-02-14T02:28:52;4.13;;;2.37;;
5801;SDS011;2927;49.366;8.530;2024-02-14T02:31:19;3.53;;;2.40;;
5801;SDS011;2927;49.366;8.530;2024-02-14T02:33:45;4.73;;;2.60;;
5801;SDS011;2927;49.366;8.530;2024-02-14T02:36:10;5.43;;;2.80;;
5801;SDS011;2927;49.366;8.530;2024-02-14T02:38:36;2.77;;;2.10;;
5801;SDS011;2927;49.366;8.530;2024-02-14T02:41:02;4.23;;;2.67;;
5801;SDS011;2927;49.366;8.530;2024-02-14T02:43:31;2.70;;;2.10;;
5801;SDS011;2927;49.366;8.530;2024-02-14T02:45:57;4.87;;;2.23;;
5801;SDS011;2927;49.366;8.530;2024-02-14T02:48:23;2.40;;;2.20;;
5801;SDS011;2927;49.366;8.530;2024-02-14T02:50:49;6.83;;;2.40;;
5801;SDS011;2927;49.366;8.530;2024-02-14T02:53:15;7.20;;;2.43;;
5801;SDS011;2927;49.366;8.530;2024-02-14T02:55:41;3.20;;;2.30;;
5801;SDS011;2927;49.366;8.530;2024-02-14T02:58:06;2.93;;;2.00;;
5801;SDS011;2927;49.366;8.530;2024-02-14T03:00:32;7.50;;;2.50;;
5801;SDS011;2927;49.366;8.530;2024-02-14T03:02:58;5.87;;;2.10;;
5801;SDS011;2927;49.366;8.530;2024-02-14T03:05:24;2.83;;;2.20;;
5801;SDS011;2927;49.366;8.530;2024-02-14T03:07:50;4.57;;;2.50;;
5801;SDS011;2927;49.366;8.530;2024-02-14T03:10:17;2.50;;;1.67;;
5801;SDS011;2927;49.366;8.530;2024-02-14T03:12:49;3.53;;;2.63;;
5801;SDS011;2927;49.366;8.530;2024-02-14T03:15:15;4.73;;;2.40;;
5801;SDS011;2927;49.366;8.530;2024-02-14T03:17:41;5.50;;;2.13;;
5801;SDS011;2927;49.366;8.530;2024-02-14T03:20:10;3.63;;;2.20;;
5801;SDS011;2927;49.366;8.530;2024-02-14T03:22:40;4.37;;;2.03;;
5801;SDS011;2927;49.366;8.530;2024-02-14T03:25:21;3.90;;;1.83;;
5801;SDS011;2927;49.366;8.530;2024-02-14T03:27:46;6.03;;;2.50;;
5801;SDS011;2927;49.366;8.530;2024-02-14T03:30:16;4.97;;;2.97;;
5801;SDS011;2927;49.366;8.530;2024-02-14T03:32:44;3.87;;;2.30;;
5801;SDS011;2927;49.366;8.530;2024-02-14T03:35:10;5.40;;;2.23;;
5801;SDS011;2927;49.366;8.530;2024-02-14T03:37:38;6.70;;;3.10;;
5801;SDS011;2927;49.366;8.530;2024-02-14T03:40:04;4.87;;;2.50;;
5801;SDS011;2927;49.366;8.530;2024-02-14T03:42:31;7.27;;;3.07;;
5801;SDS011;2927;49.366;8.530;2024-02-14T03:44:57;3.43;;;2.47;;
5801;SDS011;2927;49.366;8.530;2024-02-14T03:47:30;4.10;;;2.97;;
5801;SDS011;2927;49.366;8.530;2024-02-14T03:49:56;5.97;;;2.90;;
5801;SDS011;2927;49.366;8.530;2024-02-14T03:52:22;5.07;;;2.90;;
5801;SDS011;2927;49.366;8.530;2024-02-14T03:54:48;4.30;;;2.70;;
5801;SDS011;2927;49.366;8.530;2024-02-14T03:57:13;6.97;;;2.53;;
5801;SDS011;2927;49.366;8.530;2024-02-14T03:59:39;2.67;;;2.47;;
5801;SDS011;2927;49.366;8.530;2024-02-14T04:02:05;6.67;;;3.30;;
5801;SDS011;2927;49.366;8.530;2024-02-14T04:04:34;3.27;;;2.80;;
5801;SDS011;2927;49.366;8.530;2024-02-14T04:07:02;5.30;;;3.27;;
5801;SDS011;2927;49.366;8.530;2024-02-14T04:09:28;4.30;;;2.93;;
5801;SDS011;2927;49.366;8.530;2024-02-14T04:11:53;6.07;;;2.80;;
5801;SDS011;2927;49.366;8.530;2024-02-14T04:14:19;5.53;;;2.90;;
5801;SDS011;2927;49.366;8.530;2024-02-14T04:16:45;8.63;;;2.77;;
5801;SDS011;2927;49.366;8.530;2024-02-14T04:19:11;5.37;;;2.50;;
5801;SDS011;2927;49.366;8.530;2024-02-14T04:21:37;5.53;;;2.60;;
5801;SDS011;2927;49.366;8.530;2024-02-14T04:24:03;6.30;;;2.90;;
5801;SDS011;2927;49.366;8.530;2024-02-14T04:26:29;5.57;;;2.63;;
5801;SDS011;2927;49.366;8.530;2024-02-14T04:28:55;8.40;;;2.30;;
5801;SDS011;2927;49.366;8.530;2024-02-14T04:31:20;3.37;;;2.40;;
5801;SDS011;2927;49.366;8.530;2024-02-14T04:33:46;8.83;;;3.63;;
5801;SDS011;2927;49.366;8.530;2024-02-14T04:36:17;4.60;;;2.73;;
5801;SDS011;2927;49.366;8.530;2024-02-14T04:38:46;3.83;;;2.43;;
5801;SDS011;2927;49.366;8.530;2024-02-14T04:41:12;7.53;;;3.60;;
5801;SDS011;2927;49.366;8.530;2024-02-14T04:43:39;3.90;;;3.00;;
5801;SDS011;2927;49.366;8.530;2024-02-14T04:46:05;8.43;;;3.37;;
5801;SDS011;2927;49.366;8.530;2024-02-14T04:48:35;12.50;;;2.97;;
5801;SDS011;2927;49.366;8.530;2024-02-14T04:51:02;7.10;;;2.70;;
5801;SDS011;2927;49.366;8.530;2024-02-14T04:53:27;2.33;;;2.13;;
5801;SDS011;2927;49.366;8.530;2024-02-14T04:55:53;2.73;;;2.47;;
5801;SDS011;2927;49.366;8.530;2024-02-14T04:58:19;5.27;;;2.20;;
5801;SDS011;2927;49.366;8.530;2024-02-14T05:00:45;7.27;;;2.90;;
5801;SDS011;2927;49.366;8.530;2024-02-14T05:03:11;6.23;;;3.07;;
5801;SDS011;2927;49.366;8.530;2024-02-14T05:05:37;3.77;;;3.10;;
5801;SDS011;2927;49.366;8.530;2024-02-14T05:08:03;4.23;;;2.63;;
5801;SDS011;2927;49.366;8.530;2024-02-14T05:10:28;4.00;;;3.37;;
5801;SDS011;2927;49.366;8.530;2024-02-14T05:12:54;4.90;;;3.23;;
5801;SDS011;2927;49.366;8.530;2024-02-14T05:15:20;4.97;;;2.67;;
5801;SDS011;2927;49.366;8.530;2024-02-14T05:17:45;5.17;;;2.97;;
5801;SDS011;2927;49.366;8.530;2024-02-14T05:20:11;8.57;;;2.53;;
5801;SDS011;2927;49.366;8.530;2024-02-14T05:22:37;5.33;;;2.90;;
5801;SDS011;2927;49.366;8.530;2024-02-14T05:25:04;4.37;;;2.60;;
5801;SDS011;2927;49.366;8.530;2024-02-14T05:27:30;7.17;;;2.50;;
5801;SDS011;2927;49.366;8.530;2024-02-14T05:29:56;5.67;;;3.23;;
5801;SDS011;2927;49.366;8.530;2024-02-14T05:32:22;13.23;;;3.23;;
5801;SDS011;2927;49.366;8.530;2024-02-14T05:34:48;8.77;;;3.30;;
5801;SDS011;2927;49.366;8.530;2024-02-14T05:37:15;3.50;;;2.27;;
5801;SDS011;2927;49.366;8.530;2024-02-14T05:39:41;5.13;;;2.80;;
5801;SDS011;2927;49.366;8.530;2024-02-14T05:42:06;5.10;;;3.10;;
5801;SDS011;2927;49.366;8.530;2024-02-14T05:44:32;5.33;;;2.47;;
5801;SDS011;2927;49.366;8.530;2024-02-14T05:46:58;3.43;;;3.13;;
5801;SDS011;2927;49.366;8.530;2024-02-14T05:49:23;4.83;;;2.20;;
5801;SDS011;2927;49.366;8.530;2024-02-14T05:51:49;4.50;;;3.23;;
5801;SDS011;2927;49.366;8.530;2024-02-14T05:54:17;6.60;;;3.63;;
5801;SDS011;2927;49.366;8.530;2024-02-14T05:56:43;6.10;;;2.30;;
5801;SDS011;2927;49.366;8.530;2024-02-14T05:59:09;6.37;;;3.07;;
5801;SDS011;2927;49.366;8.530;2024-02-14T06:01:35;4.80;;;2.73;;
5801;SDS011;2927;49.366;8.530;2024-02-14T06:04:01;7.53;;;3.00;;
5801;SDS011;2927;49.366;8.530;2024-02-14T06:06:26;3.50;;;2.57;;
5801;SDS011;2927;49.366;8.530;2024-02-14T06:08:52;6.80;;;3.40;;
5801;SDS011;2927;49.366;8.530;2024-02-14T06:11:17;6.13;;;2.77;;
5801;SDS011;2927;49.366;8.530;2024-02-14T06:13:46;3.63;;;2.57;;
5801;SDS011;2927;49.366;8.530;2024-02-14T06:16:14;5.63;;;3.03;;
5801;SDS011;2927;49.366;8.530;2024-02-14T06:18:40;3.67;;;2.50;;
5801;SDS011;2927;49.366;8.530;2024-02-14T06:21:05;4.43;;;2.47;;
5801;SDS011;2927;49.366;8.530;2024-02-14T06:23:31;4.63;;;2.30;;
5801;SDS011;2927;49.366;8.530;2024-02-14T06:25:57;3.37;;;2.20;;
5801;SDS011;2927;49.366;8.530;2024-02-14T06:28:23;4.57;;;2.57;;
5801;SDS011;2927;49.366;8.530;2024-02-14T06:30:49;5.57;;;1.80;;
5801;SDS011;2927;49.366;8.530;2024-02-14T06:33:14;6.03;;;2.30;;
5801;SDS011;2927;49.366;8.530;2024-02-14T06:35:40;6.10;;;2.30;;
5801;SDS011;2927;49.366;8.530;2024-02-14T06:38:06;4.30;;;2.47;;
5801;SDS011;2927;49.366;8.530;2024-02-14T06:40:31;12.23;;;1.90;;
5801;SDS011;2927;49.366;8.530;2024-02-14T06:42:57;7.27;;;2.40;;
5801;SDS011;2927;49.366;8.530;2024-02-14T06:45:25;8.03;;;2.57;;
5801;SDS011;2927;49.366;8.530;2024-02-14T06:47:51;3.83;;;1.73;;
5801;SDS011;2927;49.366;8.530;2024-02-14T06:50:16;3.13;;;2.43;;
5801;SDS011;2927;49.366;8.530;2024-02-14T06:52:42;2.77;;;2.20;;
5801;SDS011;2927;49.366;8.530;2024-02-14T06:55:07;5.30;;;2.17;;
5801;SDS011;2927;49.366;8.530;2024-02-14T06:57:33;5.37;;;2.80;;
5801;SDS011;2927;49.366;8.530;2024-02-14T06:59:59;6.90;;;3.17;;
5801;SDS011;2927;49.366;8.530;2024-02-14T07:02:24;12.00;;;3.80;;
5801;SDS011;2927;49.366;8.530;2024-02-14T07:04:53;10.30;;;2.47;;
5801;SDS011;2927;49.366;8.530;2024-02-14T07:07:19;5.03;;;2.30;;
5801;SDS011;2927;49.366;8.530;2024-02-14T07:09:45;6.80;;;2.50;;
5801;SDS011;2927;49.366;8.530;2024-02-14T07:12:10;4.63;;;2.60;;
5801;SDS011;2927;49.366;8.530;2024-02-14T07:14:36;4.70;;;2.20;;
5801;SDS011;2927;49.366;8.530;2024-02-14T07:17:02;3.43;;;1.87;;
5801;SDS011;2927;49.366;8.530;2024-02-14T07:19:28;5.70;;;2.00;;
5801;SDS011;2927;49.366;8.530;2024-02-14T07:21:53;5.90;;;2.13;;
5801;SDS011;2927;49.366;8.530;2024-02-14T07:24:19;2.97;;;1.50;;
5801;SDS011;2927;49.366;8.530;2024-02-14T07:26:44;21.63;;;3.03;;
5801;SDS011;2927;49.366;8.530;2024-02-14T07:29:11;5.27;;;2.30;;
5801;SDS011;2927;49.366;8.530;2024-02-14T07:31:36;2.40;;;2.20;;
5801;SDS011;2927;49.366;8.530;2024-02-14T07:34:02;5.60;;;2.13;;
5801;SDS011;2927;49.366;8.530;2024-02-14T07:36:31;7.57;;;2.70;;
5801;SDS011;2927;49.366;8.530;2024-02-14T07:38:57;2.10;;;1.87;;
5801;SDS011;2927;49.366;8.530;2024-02-14T07:41:22;5.50;;;2.13;;
5801;SDS011;2927;49.366;8.530;2024-02-14T07:43:48;5.47;;;1.90;;
5801;SDS011;2927;49.366;8.530;2024-02-14T07:46:20;3.03;;;1.87;;
5801;SDS011;2927;49.366;8.530;2024-02-14T07:48:47;6.53;;;2.27;;
5801;SDS011;2927;49.366;8.530;2024-02-14T07:51:13;4.80;;;2.10;;
5801;SDS011;2927;49.366;8.530;2024-02-14T07:53:39;6.50;;;2.30;;
5801;SDS011;2927;49.366;8.530;2024-02-14T07:56:05;4.20;;;2.10;;
5801;SDS011;2927;49.366;8.530;2024-02-14T07:58:30;1.87;;;1.70;;
5801;SDS011;2927;49.366;8.530;2024-02-14T08:00:56;12.97;;;2.67;;
5801;SDS011;2927;49.366;8.530;2024-02-14T08:03:21;4.50;;;2.17;;
5801;SDS011;2927;49.366;8.530;2024-02-14T08:05:48;2.80;;;2.10;;
5801;SDS011;2927;49.366;8.530;2024-02-14T08:08:14;2.47;;;1.80;;
5801;SDS011;2927;49.366;8.530;2024-02-14T08:10:40;6.13;;;3.43;;
5801;SDS011;2927;49.366;8.530;2024-02-14T08:13:05;8.73;;;2.57;;
5801;SDS011;2927;49.366;8.530;2024-02-14T08:15:31;3.20;;;1.53;;
5801;SDS011;2927;49.366;8.530;2024-02-14T08:17:57;5.83;;;2.30;;
5801;SDS011;2927;49.366;8.530;2024-02-14T08:20:24;4.20;;;2.33;;
5801;SDS011;2927;49.366;8.530;2024-02-14T08:22:49;4.73;;;2.60;;
5801;SDS011;2927;49.366;8.530;2024-02-14T08:25:15;6.70;;;2.47;;
5801;SDS011;2927;49.366;8.530;2024-02-14T08:27:41;3.63;;;2.47;;
5801;SDS011;2927;49.366;8.530;2024-02-14T08:30:06;1.93;;;1.60;;
5801;SDS011;2927;49.366;8.530;2024-02-14T08:32:34;2.60;;;2.40;;
5801;SDS011;2927;49.366;8.530;2024-02-14T08:34:59;6.23;;;1.97;;
5801;SDS011;2927;49.366;8.530;2024-02-14T08:37:26;4.37;;;1.80;;
5801;SDS011;2927;49.366;8.530;2024-02-14T08:39:52;3.83;;;2.03;;
5801;SDS011;2927;49.366;8.530;2024-02-14T08:42:17;5.43;;;2.73;;
5801;SDS011;2927;49.366;8.530;2024-02-14T08:44:43;2.43;;;2.23;;
5801;SDS011;2927;49.366;8.530;2024-02-14T08:47:08;3.43;;;1.73;;
5801;SDS011;2927;49.366;8.530;2024-02-14T08:49:34;9.67;;;3.07;;
5801;SDS011;2927;49.366;8.530;2024-02-14T08:52:00;7.40;;;3.00;;
5801;SDS011;2927;49.366;8.530;2024-02-14T08:54:25;6.00;;;2.43;;
5801;SDS011;2927;49.366;8.530;2024-02-14T08:56:53;8.87;;;2.20;;
5801;SDS011;2927;49.366;8.530;2024-02-14T08:59:20;4.10;;;2.47;;
5801;SDS011;2927;49.366;8.530;2024-02-14T09:01:46;7.77;;;2.60;;
5801;SDS011;2927;49.366;8.530;2024-02-14T09:04:13;2.60;;;2.00;;
5801;SDS011;2927;49.366;8.530;2024-02-14T09:06:38;5.77;;;2.23;;
5801;SDS011;2927;49.366;8.530;2024-02-14T09:09:05;10.77;;;2.17;;
5801;SDS011;2927;49.366;8.530;2024-02-14T09:11:32;3.53;;;2.23;;
5801;SDS011;2927;49.366;8.530;2024-02-14T09:13:57;4.87;;;2.40;;
5801;SDS011;2927;49.366;8.530;2024-02-14T09:16:29;2.07;;;1.70;;
5801;SDS011;2927;49.366;8.530;2024-02-14T09:18:55;9.20;;;1.77;;
5801;SDS011;2927;49.366;8.530;2024-02-14T09:21:21;4.40;;;1.80;;
5801;SDS011;2927;49.366;8.530;2024-02-14T09:23:47;3.00;;;2.10;;
5801;SDS011;2927;49.366;8.530;2024-02-14T09:26:12;3.90;;;2.27;;
5801;SDS011;2927;49.366;8.530;2024-02-14T09:28:41;2.70;;;2.00;;
5801;SDS011;2927;49.366;8.530;2024-02-14T09:31:07;5.47;;;2.20;;
5801;SDS011;2927;49.366;8.530;2024-02-14T09:33:35;7.20;;;1.80;;
5801;SDS011;2927;49.366;8.530;2024-02-14T09:36:02;9.10;;;1.80;;
5801;SDS011;2927;49.366;8.530;2024-02-14T09:38:29;1.50;;;1.30;;
5801;SDS011;2927;49.366;8.530;2024-02-14T09:40:54;2.30;;;2.00;;
5801;SDS011;2927;49.366;8.530;2024-02-14T09:43:31;4.50;;;2.10;;
5801;SDS011;2927;49.366;8.530;2024-02-14T09:46:01;3.40;;;2.03;;
5801;SDS011;2927;49.366;8.530;2024-02-14T09:48:28;4.47;;;1.80;;
5801;SDS011;2927;49.366;8.530;2024-02-14T09:50:55;2.30;;;1.70;;
5801;SDS011;2927;49.366;8.530;2024-02-14T09:53:21;5.33;;;2.30;;
5801;SDS011;2927;49.366;8.530;2024-02-14T09:55:48;2.53;;;1.70;;
5801;SDS011;2927;49.366;8.530;2024-02-14T09:58:15;2.20;;;1.80;;
5801;SDS011;2927;49.366;8.530;2024-02-14T10:00:42;4.37;;;1.87;;
5801;SDS011;2927;49.366;8.530;2024-02-14T10:03:08;3.60;;;1.70;;
5801;SDS011;2927;49.366;8.530;2024-02-14T10:05:33;2.47;;;1.93;;
5801;SDS011;2927;49.366;8.530;2024-02-14T10:07:59;4.07;;;2.20;;
5801;SDS011;2927;49.366;8.530;2024-02-14T10:10:26;12.83;;;2.67;;
5801;SDS011;2927;49.366;8.530;2024-02-14T10:12:54;3.13;;;1.90;;
5801;SDS011;2927;49.366;8.530;2024-02-14T10:15:21;2.60;;;1.93;;
5801;SDS011;2927;49.366;8.530;2024-02-14T10:17:47;2.80;;;2.40;;
5801;SDS011;2927;49.366;8.530;2024-02-14T10:20:16;9.70;;;3.50;;
5801;SDS011;2927;49.366;8.530;2024-02-14T10:22:42;4.53;;;2.33;;
5801;SDS011;2927;49.366;8.530;2024-02-14T10:25:09;4.83;;;2.50;;
5801;SDS011;2927;49.366;8.530;2024-02-14T10:27:38;8.50;;;2.57;;
5801;SDS011;2927;49.366;8.530;2024-02-14T10:30:05;3.37;;;2.40;;
5801;SDS011;2927;49.366;8.530;2024-02-14T10:32:35;4.30;;;2.57;;
5801;SDS011;2927;49.366;8.530;2024-02-14T10:35:03;2.43;;;1.10;;
5801;SDS011;2927;49.366;8.530;2024-02-14T10:37:33;3.63;;;1.97;;
5801;SDS011;2927;49.366;8.530;2024-02-14T10:40:01;2.13;;;1.30;;
5801;SDS011;2927;49.366;8.530;2024-02-14T10:42:28;7.40;;;1.20;;
5801;SDS011;2927;49.366;8.530;2024-02-14T10:44:54;2.13;;;1.83;;
5801;SDS011;2927;49.366;8.530;2024-02-14T10:47:20;5.03;;;2.50;;
5801;SDS011;2927;49.366;8.530;2024-02-14T10:49:48;3.70;;;1.17;;
5801;SDS011;2927;49.366;8.530;2024-02-14T10:52:16;3.50;;;1.27;;
5801;SDS011;2927;49.366;8.530;2024-02-14T10:54:43;2.50;;;1.73;;
5801;SDS011;2927;49.366;8.530;2024-02-14T10:57:17;3.80;;;1.87;;
5801;SDS011;2927;49.366;8.530;2024-02-14T10:59:45;2.57;;;1.37;;
5801;SDS011;2927;49.366;8.530;2024-02-14T13:55:09;1.17;;;0.73;;
5801;SDS011;2927;49.366;8.530;2024-02-14T13:57:38;1.60;;;0.80;;
5801;SDS011;2927;49.366;8.530;2024-02-14T14:00:08;0.67;;;0.67;;
5801;SDS011;2927;49.366;8.530;2024-02-14T14:02:34;0.80;;;0.80;;
5801;SDS011;2927;49.366;8.530;2024-02-14T14:05:06;1.07;;;0.83;;
5801;SDS011;2927;49.366;8.530;2024-02-14T14:07:33;11.53;;;0.80;;
5801;SDS011;2927;49.366;8.530;2024-02-14T14:10:01;2.70;;;1.20;;
5801;SDS011;2927;49.366;8.530;2024-02-14T14:12:27;2.77;;;1.00;;
5801;SDS011;2927;49.366;8.530;2024-02-14T14:14:53;1.03;;;0.93;;
5801;SDS011;2927;49.366;8.530;2024-02-14T14:17:19;2.90;;;1.10;;
5801;SDS011;2927;49.366;8.530;2024-02-14T14:19:44;0.80;;;0.63;;
5801;SDS011;2927;49.366;8.530;2024-02-14T14:22:10;1.03;;;0.53;;
5801;SDS011;2927;49.366;8.530;2024-02-14T14:24:35;1.43;;;0.70;;
5801;SDS011;2927;49.366;8.530;2024-02-14T14:27:01;1.40;;;0.97;;
5801;SDS011;2927;49.366;8.530;2024-02-14T14:29:27;1.03;;;0.60;;
5801;SDS011;2927;49.366;8.530;2024-02-14T14:31:53;1.03;;;0.70;;
5801;SDS011;2927;49.366;8.530;2024-02-14T14:34:19;1.53;;;0.80;;
5801;SDS011;2927;49.366;8.530;2024-02-14T14:36:45;1.03;;;0.90;;
5801;SDS011;2927;49.366;8.530;2024-02-14T14:39:10;1.23;;;0.97;;
5801;SDS011;2927;49.366;8.530;2024-02-14T14:41:37;2.60;;;2.37;;
5801;SDS011;2927;49.366;8.530;2024-02-14T14:44:03;30.93;;;4.50;;
5801;SDS011;2927;49.366;8.530;2024-02-14T14:46:29;14.87;;;8.70;;
5801;SDS011;2927;49.366;8.530;2024-02-14T14:48:56;2.83;;;1.83;;
5801;SDS011;2927;49.366;8.530;2024-02-14T14:51:22;0.80;;;0.80;;
5801;SDS011;2927;49.366;8.530;2024-02-14T14:53:48;2.50;;;1.17;;
5801;SDS011;2927;49.366;8.530;2024-02-14T14:56:13;1.70;;;0.80;;
5801;SDS011;2927;49.366;8.530;2024-02-14T14:58:39;1.90;;;0.80;;
5801;SDS011;2927;49.366;8.530;2024-02-14T15:01:07;2.00;;;1.27;;
5801;SDS011;2927;49.366;8.530;2024-02-14T15:03:34;2.30;;;1.60;;
5801;SDS011;2927;49.366;8.530;2024-02-14T15:05:59;1.57;;;1.33;;
5801;SDS011;2927;49.366;8.530;2024-02-14T15:08:25;2.03;;;1.70;;
5801;SDS011;2927;49.366;8.530;2024-02-14T15:10:52;1.10;;;1.00;;
5801;SDS011;2927;49.366;8.530;2024-02-14T15:13:18;3.90;;;0.90;;
5801;SDS011;2927;49.366;8.530;2024-02-14T15:15:44;1.47;;;0.87;;
5801;SDS011;2927;49.366;8.530;2024-02-14T15:18:10;0.60;;;0.60;;
5801;SDS011;2927;49.366;8.530;2024-02-14T15:20:35;1.07;;;0.97;;
5801;SDS011;2927;49.366;8.530;2024-02-14T15:23:02;1.17;;;1.07;;
5801;SDS011;2927;49.366;8.530;2024-02-14T15:25:28;0.80;;;0.80;;
5801;SDS011;2927;49.366;8.530;2024-02-14T15:27:53;3.53;;;0.60;;
5801;SDS011;2927;49.366;8.530;2024-02-14T15:30:23;0.73;;;0.73;;
5801;SDS011;2927;49.366;8.530;2024-02-14T15:33:07;1.60;;;0.87;;
5801;SDS011;2927;49.366;8.530;2024-02-14T15:35:49;2.73;;;1.43;;
5801;SDS011;2927;49.366;8.530;2024-02-14T15:38:15;2.00;;;0.83;;
5801;SDS011;2927;49.366;8.530;2024-02-14T15:40:43;1.23;;;1.10;;
5801;SDS011;2927;49.366;8.530;2024-02-14T15:43:13;5.17;;;1.80;;
5801;SDS011;2927;49.366;8.530;2024-02-14T15:45:39;3.20;;;2.50;;
5801;SDS011;2927;49.366;8.530;2024-02-14T15:48:05;1.77;;;1.60;;
5801;SDS011;2927;49.366;8.530;2024-02-14T15:50:32;5.50;;;0.80;;
5801;SDS011;2927;49.366;8.530;2024-02-14T15:52:59;1.03;;;0.80;;
5801;SDS011;2927;49.366;8.530;2024-02-14T15:55:24;1.10;;;0.67;;
5801;SDS011;2927;49.366;8.530;2024-02-14T15:57:50;1.10;;;1.00;;
5801;SDS011;2927;49.366;8.530;2024-02-14T16:00:16;0.87;;;0.83;;
5801;SDS011;2927;49.366;8.530;2024-02-14T16:02:42;1.10;;;1.00;;
5801;SDS011;2927;49.366;8.530;2024-02-14T16:05:07;1.47;;;0.83;;
5801;SDS011;2927;49.366;8.530;2024-02-14T16:07:36;1.33;;;1.23;;
5801;SDS011;2927;49.366;8.530;2024-02-14T16:10:02;1.27;;;1.23;;
5801;SDS011;2927;49.366;8.530;2024-02-14T16:12:28;1.43;;;1.33;;
5801;SDS011;2927;49.366;8.530;2024-02-14T16:14:53;1.13;;;1.07;;
5801;SDS011;2927;49.366;8.530;2024-02-14T16:17:19;1.10;;;1.00;;
5801;SDS011;2927;49.366;8.530;2024-02-14T16:19:45;3.50;;;1.57;;
5801;SDS011;2927;49.366;8.530;2024-02-14T16:22:11;1.80;;;1.37;;
5801;SDS011;2927;49.366;8.530;2024-02-14T16:24:36;2.00;;;1.60;;
5801;SDS011;2927;49.366;8.530;2024-02-14T16:27:02;4.10;;;2.70;;
5801;SDS011;2927;49.366;8.530;2024-02-14T16:29:28;4.70;;;1.53;;
5801;SDS011;2927;49.366;8.530;2024-02-14T16:31:55;1.70;;;1.50;;
5801;SDS011;2927;49.366;8.530;2024-02-14T16:34:22;3.57;;;1.50;;
5801;SDS011;2927;49.366;8.530;2024-02-14T16:36:47;6.90;;;2.70;;
5801;SDS011;2927;49.366;8.530;2024-02-14T16:39:13;10.53;;;4.23;;
5801;SDS011;2927;49.366;8.530;2024-02-14T16:41:39;12.30;;;4.30;;
5801;SDS011;2927;49.366;8.530;2024-02-14T16:44:04;4.50;;;2.37;;
5801;SDS011;2927;49.366;8.530;2024-02-14T16:46:31;7.80;;;3.83;;
5801;SDS011;2927;49.366;8.530;2024-02-14T16:48:56;11.60;;;2.40;;
5801;SDS011;2927;49.366;8.530;2024-02-14T16:51:22;2.17;;;1.97;;
5801;SDS011;2927;49.366;8.530;2024-02-14T16:53:48;2.80;;;2.17;;
5801;SDS011;2927;49.366;8.530;2024-02-14T16:56:13;5.37;;;2.67;;
5801;SDS011;2927;49.366;8.530;2024-02-14T16:58:39;2.40;;;2.20;;
5801;SDS011;2927;49.366;8.530;2024-02-14T17:01:05;3.20;;;1.70;;
5801;SDS011;2927;49.366;8.530;2024-02-14T17:03:33;3.87;;;2.50;;
5801;SDS011;2927;49.366;8.530;2024-02-14T17:05:59;1.97;;;1.80;;
5801;SDS011;2927;49.366;8.530;2024-02-14T17:08:26;3.47;;;2.57;;
5801;SDS011;2927;49.366;8.530;2024-02-14T17:10:51;6.67;;;3.20;;
5801;SDS011;2927;49.366;8.530;2024-02-14T17:13:17;9.43;;;4.13;;
5801;SDS011;2927;49.366;8.530;2024-02-14T17:15:42;14.50;;;4.07;;
5801;SDS011;2927;49.366;8.530;2024-02-14T17:18:08;7.07;;;3.33;;
5801;SDS011;2927;49.366;8.530;2024-02-14T17:20:34;7.70;;;3.33;;
5801;SDS011;2927;49.366;8.530;2024-02-14T17:22:59;8.77;;;2.60;;
5801;SDS011;2927;49.366;8.530;2024-02-14T17:25:25;4.70;;;2.17;;
5801;SDS011;2927;49.366;8.530;2024-02-14T17:27:51;4.30;;;3.30;;
5801;SDS011;2927;49.366;8.530;2024-02-14T17:30:17;1.63;;;1.53;;
5801;SDS011;2927;49.366;8.530;2024-02-14T17:32:44;2.50;;;2.00;;
5801;SDS011;2927;49.366;8.530;2024-02-14T17:35:13;2.70;;;1.90;;
5801;SDS011;2927;49.366;8.530;2024-02-14T17:37:39;2.53;;;1.73;;
5801;SDS011;2927;49.366;8.530;2024-02-14T17:40:06;2.30;;;1.80;;
5801;SDS011;2927;49.366;8.530;2024-02-14T17:42:33;2.00;;;1.90;;
5801;SDS011;2927;49.366;8.530;2024-02-14T17:44:58;4.07;;;3.50;;
5801;SDS011;2927;49.366;8.530;2024-02-14T17:47:24;5.23;;;3.13;;
5801;SDS011;2927;49.366;8.530;2024-02-14T17:49:51;5.67;;;3.33;;
5801;SDS011;2927;49.366;8.530;2024-02-14T17:52:20;3.20;;;2.60;;
5801;SDS011;2927;49.366;8.530;2024-02-14T17:54:45;1.97;;;1.87;;
5801;SDS011;2927;49.366;8.530;2024-02-14T17:57:12;6.57;;;3.83;;
5801;SDS011;2927;49.366;8.530;2024-02-14T17:59:37;4.63;;;2.83;;
5801;SDS011;2927;49.366;8.530;2024-02-14T18:02:03;1.73;;;1.63;;
5801;SDS011;2927;49.366;8.530;2024-02-14T18:04:29;4.17;;;3.40;;